Time;durP1;ratioP1;P1;durP2;ratioP2;P2;SDS_P1;SDS_P2;PMS_P1;PMS_P2;Temp;Humidity;BMP_temperature;BMP_pressure;BME280_temperature;BME280_humidity;BME280_pressure;Samples;Min_cycle;Max_cycle;Signal;HPM_P1;HPM_P2
2023/04/23 12:04:43;;;;;;;6.10;2.60;;;;;;;34.67;15.54;98482.49;106606;1299;559313;-58
2023/04/23 12:07:09;;;;;;;6.60;3.00;;;;;;;35.08;14.72;98484.27;107429;1304;90475;-58
2023/04/23 12:09:35;;;;;;;10.20;3.00;;;;;;;34.93;14.42;98479.46;108324;1302;22244;-52
2023/04/23 12:12:01;;;;;;;6.30;2.70;;;;;;;34.74;14.75;98486.00;108293;1289;22418;-52
2023/04/23 12:14:29;;;;;;;5.40;2.20;;;;;;;35.26;14.12;98484.15;108048;1296;22292;-50
2023/04/23 12:16:55;;;;;;;5.40;2.80;;;;;;;35.77;14.38;98484.33;108305;1295;22260;-52
2023/04/23 12:19:29;;;;;;;4.70;2.50;;;;;;;35.76;13.82;98488.69;108237;1295;22322;-50
2023/04/23 12:21:59;;;;;;;6.00;2.60;;;;;;;35.68;13.56;98482.27;108271;1298;22343;-51
2023/04/23 12:24:27;;;;;;;4.50;3.10;;;;;;;35.86;14.08;98482.20;108297;1297;23072;-50
2023/04/23 12:26:57;;;;;;;31.40;4.90;;;;;;;35.86;13.82;98479.26;108312;1303;22379;-49
2023/04/23 12:29:24;;;;;;;7.10;2.70;;;;;;;36.09;13.32;98479.26;108322;1298;23122;-51
2023/04/23 12:31:51;;;;;;;2.30;1.90;;;;;;;36.45;13.50;98473.55;108304;1296;22576;-49
2023/04/23 12:34:17;;;;;;;6.50;2.50;;;;;;;36.17;13.53;98473.91;108250;1296;22486;-51
2023/04/23 12:36:45;;;;;;;6.50;2.50;;;;;;;36.20;13.13;98476.05;108300;1298;22876;-50
2023/04/23 12:39:29;;;;;;;6.00;2.20;;;;;;;36.39;12.66;98474.27;107894;1296;22562;-48
2023/04/23 12:42:00;;;;;;;6.50;2.30;;;;;;;36.66;13.27;98473.55;108295;1295;22275;-50
2023/04/23 12:44:25;;;;;;;6.40;2.50;;;;;;;36.48;12.76;98472.55;108300;1295;22256;-49
2023/04/23 12:46:59;;;;;;;3.40;2.40;;;;;;;35.88;12.94;98472.81;108205;1298;22397;-53
2023/04/23 12:49:26;;;;;;;5.60;2.10;;;;;;;35.72;13.41;98462.37;108330;1296;22602;-49
2023/04/23 12:51:56;;;;;;;8.40;2.70;;;;;;;35.78;13.75;98457.04;108320;1299;22518;-52
2023/04/23 12:54:21;;;;;;;7.10;2.70;;;;;;;36.15;13.27;98456.17;108310;1295;22380;-52
2023/04/23 12:56:47;;;;;;;7.60;2.30;;;;;;;36.27;12.97;98454.70;108330;1302;22287;-52
2023/04/23 12:59:12;;;;;;;4.20;2.30;;;;;;;36.35;12.96;98452.90;108312;1303;23334;-52
2023/04/23 13:01:37;;;;;;;2.60;2.00;;;;;;;36.05;13.60;98450.13;108298;1303;22998;-51
2023/04/23 13:04:03;;;;;;;5.90;2.50;;;;;;;35.41;14.09;98441.41;108286;1297;22366;-49
2023/04/23 13:06:28;;;;;;;4.70;2.30;;;;;;;34.51;14.09;98447.48;108250;1299;22448;-51
2023/04/23 13:08:54;;;;;;;2.80;2.10;;;;;;;33.95;14.36;98445.30;108287;1298;23351;-52
2023/04/23 13:11:19;;;;;;;3.00;2.20;;;;;;;33.34;14.80;98435.35;108262;1298;22402;-52
2023/04/23 13:13:45;;;;;;;4.20;2.40;;;;;;;32.69;15.39;98432.06;108273;1303;22399;-53
2023/04/23 13:16:10;;;;;;;7.20;2.20;;;;;;;31.95;15.79;98430.05;108281;1296;22401;-51
2023/04/23 13:18:35;;;;;;;6.60;2.40;;;;;;;31.23;16.29;98429.52;108265;1303;22254;-52
2023/04/23 13:21:01;;;;;;;10.30;2.90;;;;;;;30.74;16.70;98428.28;108302;1296;22433;-52
2023/04/23 13:23:26;;;;;;;4.30;2.50;;;;;;;30.12;17.87;98413.79;108274;1299;22273;-52
2023/04/23 13:25:51;;;;;;;5.40;2.90;;;;;;;29.89;18.38;98412.47;108266;1303;22440;-50
2023/04/23 13:28:17;;;;;;;8.70;2.90;;;;;;;29.75;18.76;98417.05;108266;1303;22287;-53
2023/04/23 13:30:42;;;;;;;4.30;2.60;;;;;;;29.51;18.79;98414.06;108278;1296;22469;-53
2023/04/23 13:33:07;;;;;;;4.90;2.30;;;;;;;29.22;18.40;98409.66;108282;1298;22984;-53
2023/04/23 13:35:36;;;;;;;5.10;2.60;;;;;;;28.84;19.42;98410.71;108243;1296;22419;-56
2023/04/23 13:38:01;;;;;;;5.00;2.90;;;;;;;28.56;19.43;98407.83;108322;1298;22412;-53
2023/04/23 13:40:27;;;;;;;3.20;2.90;;;;;;;28.42;19.96;98404.89;108318;1303;22463;-50
2023/04/23 13:42:53;;;;;;;3.80;2.90;;;;;;;28.31;19.54;98400.16;108279;1296;22365;-49
2023/04/23 13:45:19;;;;;;;4.60;2.60;;;;;;;28.19;19.65;98401.15;108255;1296;22440;-53
2023/04/23 13:47:44;;;;;;;3.30;2.40;;;;;;;28.10;19.72;98394.52;108224;1298;23002;-53
2023/04/23 13:50:10;;;;;;;4.10;2.30;;;;;;;28.00;19.94;98396.67;108248;1296;22950;-50
2023/04/23 13:52:37;;;;;;;4.40;2.90;;;;;;;27.73;19.83;98391.18;108273;1299;22520;-50
2023/04/23 13:55:03;;;;;;;6.70;2.90;;;;;;;27.71;19.91;98387.45;108273;1298;22285;-52
2023/04/23 13:57:28;;;;;;;5.10;2.60;;;;;;;27.68;20.04;98386.86;108277;1303;22909;-51
2023/04/23 13:59:54;;;;;;;3.80;3.10;;;;;;;27.75;20.30;98382.85;108302;1297;22446;-54
2023/04/23 14:02:23;;;;;;;6.10;2.30;;;;;;;27.83;20.53;98381.22;108210;1298;22399;-50
2023/04/23 14:04:48;;;;;;;7.30;2.30;;;;;;;27.66;20.32;98382.95;108315;1303;22557;-49
2023/04/23 14:07:13;;;;;;;7.70;2.60;;;;;;;27.47;20.79;98378.88;108317;1301;22237;-45
2023/04/23 14:09:39;;;;;;;4.00;2.30;;;;;;;27.10;20.40;98376.36;108307;1298;23066;-54
2023/04/23 14:12:04;;;;;;;2.70;2.20;;;;;;;27.05;20.23;98371.06;108210;1303;22233;-50
2023/04/23 14:14:30;;;;;;;3.60;2.00;;;;;;;26.83;21.14;98369.45;108346;1303;22242;-51
2023/04/23 14:16:55;;;;;;;6.00;1.90;;;;;;;26.75;21.19;98364.08;108324;1303;22241;-52
2023/04/23 14:19:20;;;;;;;8.20;2.30;;;;;;;26.77;21.50;98365.44;108364;1303;22834;-52
2023/04/23 14:21:46;;;;;;;7.40;2.50;;;;;;;26.63;21.48;98369.90;108366;1303;22242;-51
2023/04/23 14:24:23;;;;;;;3.70;2.40;;;;;;;26.32;21.33;98367.73;108370;1303;23124;-53
2023/04/23 14:26:48;;;;;;;6.70;2.70;;;;;;;26.30;22.13;98362.27;108373;1303;22231;-53
2023/04/23 14:29:39;;;;;;;3.20;2.20;;;;;;;26.37;22.29;98359.69;108365;1303;22397;-53
2023/04/23 14:32:05;;;;;;;8.60;2.40;;;;;;;26.36;22.06;98359.81;108356;1303;22450;-56
2023/04/23 14:34:31;;;;;;;4.20;2.50;;;;;;;26.37;22.54;98355.84;108340;1303;22251;-51
2023/04/23 14:36:56;;;;;;;5.40;2.20;;;;;;;26.35;22.49;98354.71;108344;1303;22704;-52
2023/04/23 14:39:22;;;;;;;3.10;2.30;;;;;;;26.24;22.10;98354.85;108350;1303;22247;-54
2023/04/23 14:41:47;;;;;;;4.60;2.30;;;;;;;26.24;22.59;98347.69;108345;1303;23023;-53
2023/04/23 14:44:13;;;;;;;6.80;2.30;;;;;;;26.22;22.84;98346.14;108350;1303;23065;-54
2023/04/23 14:46:38;;;;;;;3.80;2.60;;;;;;;26.20;22.63;98350.05;108359;1303;22487;-54
2023/04/23 14:49:03;;;;;;;5.30;2.30;;;;;;;26.24;22.75;98344.23;108344;1303;22922;-55
2023/04/23 14:51:28;;;;;;;3.90;2.30;;;;;;;26.29;22.55;98350.07;108354;1303;23256;-54
2023/04/23 14:53:54;;;;;;;7.10;2.80;;;;;;;26.29;22.29;98344.65;108357;1303;22210;-55
2023/04/23 14:56:19;;;;;;;5.50;2.10;;;;;;;26.04;22.06;98342.67;108366;1303;23269;-52
2023/04/23 14:58:44;;;;;;;5.50;2.70;;;;;;;25.98;22.26;98338.07;108358;1303;22233;-53
2023/04/23 15:01:10;;;;;;;3.40;2.00;;;;;;;25.78;22.50;98339.04;108341;1303;22247;-53
2023/04/23 15:03:36;;;;;;;3.70;2.10;;;;;;;25.73;22.97;98335.31;108349;1303;23199;-54
2023/04/23 15:06:02;;;;;;;2.60;2.00;;;;;;;25.75;22.80;98334.27;108342;1303;22276;-55
2023/04/23 15:08:28;;;;;;;2.80;2.30;;;;;;;25.61;22.41;98335.83;108338;1303;22298;-54
2023/04/23 15:10:53;;;;;;;4.30;2.20;;;;;;;25.46;22.60;98332.24;108348;1303;22236;-53
2023/04/23 15:13:48;;;;;;;8.90;1.90;;;;;;;25.34;22.23;98336.88;108363;1303;22227;-50
2023/04/23 15:16:29;;;;;;;9.10;2.40;;;;;;;25.20;22.78;98332.10;108287;1303;22384;-52
2023/04/23 15:18:56;;;;;;;3.60;2.00;;;;;;;25.20;22.98;98332.19;108347;1303;22956;-54
2023/04/23 15:21:21;;;;;;;4.50;2.20;;;;;;;25.12;23.25;98330.09;108381;1303;23028;-51
2023/04/23 15:23:47;;;;;;;7.10;2.50;;;;;;;24.90;23.29;98334.85;108348;1303;22239;-54
2023/04/23 15:26:12;;;;;;;3.00;1.90;;;;;;;24.70;23.49;98334.60;108345;1303;22394;-52
2023/04/23 15:28:37;;;;;;;5.30;2.10;;;;;;;24.59;23.74;98332.10;108366;1303;22243;-52
2023/04/23 15:31:03;;;;;;;2.90;1.80;;;;;;;24.57;23.63;98327.80;108358;1303;23050;-55
2023/04/23 15:33:28;;;;;;;2.30;1.60;;;;;;;24.50;23.72;98320.63;108359;1303;22235;-52
2023/04/23 15:35:55;;;;;;;4.20;2.20;;;;;;;24.49;23.55;98321.48;108346;1303;22253;-50
2023/04/23 15:38:21;;;;;;;6.70;2.10;;;;;;;24.46;23.66;98326.33;108345;1303;23075;-54
2023/04/23 15:40:48;;;;;;;4.30;2.00;;;;;;;24.34;24.13;98324.56;108340;1303;22381;-53
2023/04/23 15:43:14;;;;;;;;;;;;;;;24.27;24.20;98318.90;108363;1303;23239;-52
2023/04/23 15:45:39;;;;;;;5.00;2.10;;;;;;;24.24;24.51;98319.70;108363;1303;22243;-53
2023/04/23 15:48:04;;;;;;;5.20;2.10;;;;;;;24.19;24.47;98321.45;108337;1303;22240;-49
2023/04/23 15:50:30;;;;;;;3.40;2.00;;;;;;;24.17;24.33;98318.42;108343;1289;22267;-53
2023/04/23 15:53:00;;;;;;;4.60;2.70;;;;;;;24.12;24.43;98316.60;108343;1303;22212;-54
2023/04/23 15:55:26;;;;;;;4.80;2.00;;;;;;;24.05;24.67;98316.14;108355;1303;23250;-50
2023/04/23 15:57:51;;;;;;;5.80;2.30;;;;;;;24.01;24.55;98313.54;108343;1303;22190;-54
2023/04/23 16:00:17;;;;;;;4.70;2.00;;;;;;;23.98;24.44;98310.84;108359;1303;22696;-47
2023/04/23 16:02:43;;;;;;;4.20;2.20;;;;;;;23.92;24.91;98309.98;108366;1303;22980;-52
2023/04/23 16:05:09;;;;;;;6.10;2.50;;;;;;;23.90;25.00;98306.06;108358;1303;22221;-53
2023/04/23 16:07:35;;;;;;;14.70;7.50;;;;;;;23.86;25.11;98303.64;108373;1303;22238;-53
2023/04/23 16:10:01;;;;;;;7.80;3.10;;;;;;;23.73;24.89;98303.97;108356;1303;22180;-54
2023/04/23 16:12:26;;;;;;;4.80;2.20;;;;;;;23.57;25.18;98303.25;108360;1303;22252;-52
2023/04/23 16:14:51;;;;;;;3.30;2.20;;;;;;;23.42;25.47;98304.18;108335;1303;22351;-50
2023/04/23 16:17:17;;;;;;;7.10;2.50;;;;;;;23.31;26.06;98298.58;108360;1303;22984;-52
2023/04/23 16:19:43;;;;;;;5.10;2.20;;;;;;;23.23;26.25;98301.25;108335;1303;22247;-55
2023/04/23 16:22:08;;;;;;;4.10;2.50;;;;;;;23.17;26.23;98302.69;108346;1303;22426;-55
2023/04/23 16:24:33;;;;;;;3.10;2.30;;;;;;;23.14;26.59;98299.42;108360;1303;22474;-50
2023/04/23 16:27:01;;;;;;;4.80;2.50;;;;;;;23.08;26.41;98295.73;108330;1303;23145;-54
2023/04/23 16:29:26;;;;;;;;;;;;;;;23.02;26.51;98297.90;108351;1303;22452;-56
2023/04/23 16:31:51;;;;;;;7.00;2.30;;;;;;;22.93;26.99;98293.96;108329;1303;22419;-52
2023/04/23 16:34:16;;;;;;;7.10;2.90;;;;;;;22.85;26.92;98295.11;108331;1303;22475;-52
2023/04/23 16:36:42;;;;;;;5.00;2.50;;;;;;;22.75;27.42;98292.27;108329;1303;23035;-52
2023/04/23 16:39:07;;;;;;;5.10;2.50;;;;;;;22.70;27.79;98293.16;108372;1303;23845;-52
2023/04/23 16:41:33;;;;;;;3.10;2.00;;;;;;;22.63;28.14;98290.77;108355;1303;23097;-54
2023/04/23 16:43:58;;;;;;;6.30;2.50;;;;;;;22.61;27.64;98291.84;108354;1303;22235;-54
2023/04/23 16:46:28;;;;;;;8.30;2.70;;;;;;;22.55;27.96;98294.16;108342;1303;22467;-54
2023/04/23 16:48:54;;;;;;;4.90;2.40;;;;;;;22.50;28.37;98292.27;108354;1303;22249;-51
2023/04/23 16:51:19;;;;;;;5.20;2.50;;;;;;;22.42;28.71;98292.66;108356;1303;22423;-53
2023/04/23 16:53:44;;;;;;;7.00;2.30;;;;;;;22.35;28.58;98289.90;108343;1303;22212;-50
2023/04/23 16:56:10;;;;;;;8.40;2.80;;;;;;;22.30;28.54;98289.88;108375;1303;23032;-55
2023/04/23 16:58:38;;;;;;;4.90;2.50;;;;;;;22.21;28.92;98287.27;108347;1303;22224;-57
2023/04/23 17:01:04;;;;;;;5.80;2.60;;;;;;;22.10;29.48;98288.99;108354;1303;22261;-55
2023/04/23 17:03:29;;;;;;;5.30;2.40;;;;;;;22.02;29.56;98291.48;108356;1303;23078;-51
2023/04/23 17:06:06;;;;;;;8.20;3.50;;;;;;;21.88;29.99;98292.09;108334;1303;22333;-53
2023/04/23 17:08:32;;;;;;;3.50;2.50;;;;;;;21.79;30.58;98292.64;108359;1303;23003;-57
2023/04/23 17:10:58;;;;;;;7.90;2.70;;;;;;;21.71;30.87;98297.05;108333;1303;22286;-55
2023/04/23 17:13:23;;;;;;;9.90;2.80;;;;;;;21.64;31.28;98307.21;108377;1303;22385;-53
2023/04/23 17:15:48;;;;;;;3.30;2.80;;;;;;;21.53;32.29;98315.78;108344;1303;23004;-50
2023/04/23 17:18:14;;;;;;;4.90;2.80;;;;;;;21.30;33.74;98310.55;108357;1303;22400;-51
2023/04/23 17:20:39;;;;;;;8.40;3.00;;;;;;;21.17;34.63;98308.36;108357;1303;22426;-53
2023/04/23 17:23:05;;;;;;;9.00;2.90;;;;;;;21.08;34.52;98312.39;108348;1303;22941;-53
2023/04/23 17:25:30;;;;;;;6.50;3.20;;;;;;;20.93;35.10;98319.77;108350;1303;23347;-55
2023/04/23 17:27:55;;;;;;;7.40;3.10;;;;;;;20.78;37.52;98323.59;108360;1303;22755;-56
2023/04/23 17:30:23;;;;;;;11.10;2.90;;;;;;;20.64;38.23;98325.85;108388;1303;22382;-52
2023/04/23 17:32:48;;;;;;;4.90;3.10;;;;;;;20.58;38.03;98327.94;108365;1303;22416;-52
2023/04/23 17:35:14;;;;;;;7.10;3.60;;;;;;;20.45;39.25;98331.96;108379;1303;22382;-53
2023/04/23 17:37:40;;;;;;;7.70;3.00;;;;;;;20.38;39.20;98334.68;108370;1303;22616;-52
2023/04/23 17:40:06;;;;;;;5.00;3.30;;;;;;;20.27;40.62;98332.38;108347;1303;22423;-53
2023/04/23 17:42:32;;;;;;;5.50;3.00;;;;;;;20.16;41.20;98328.39;108247;1303;22821;-54
2023/04/23 17:44:57;;;;;;;4.70;3.10;;;;;;;19.98;42.36;98326.29;108352;1303;22246;-57
2023/04/23 17:47:23;;;;;;;4.70;2.80;;;;;;;19.96;40.90;98320.98;108343;1303;23026;-56
2023/04/23 17:49:49;;;;;;;3.50;2.50;;;;;;;19.80;42.41;98319.98;108362;1303;22452;-56
2023/04/23 17:52:14;;;;;;;6.60;2.90;;;;;;;19.72;42.04;98315.71;108366;1303;22453;-57
2023/04/23 17:54:40;;;;;;;4.50;3.70;;;;;;;19.65;42.84;98313.51;108366;1303;22394;-55
2023/04/23 17:57:08;;;;;;;6.90;3.10;;;;;;;19.59;42.10;98309.30;108353;1303;22414;-57
2023/04/23 17:59:34;;;;;;;6.50;3.00;;;;;;;19.50;43.93;98308.50;108359;1303;22276;-52
2023/04/23 18:02:01;;;;;;;5.50;3.20;;;;;;;19.42;44.14;98309.73;108377;1303;22235;-56
2023/04/23 18:04:27;;;;;;;11.40;3.40;;;;;;;19.36;45.01;98309.45;108352;1303;22386;-53
2023/04/23 18:06:52;;;;;;;9.40;3.40;;;;;;;19.32;44.99;98313.58;108366;1303;22252;-52
2023/04/23 18:09:18;;;;;;;10.20;4.20;;;;;;;19.29;45.11;98318.97;108369;1303;22435;-53
2023/04/23 18:11:43;;;;;;;7.50;3.30;;;;;;;19.28;44.14;98324.06;108362;1303;22393;-53
2023/04/23 18:14:09;;;;;;;6.50;3.40;;;;;;;19.22;45.14;98323.02;108374;1303;22444;-55
2023/04/23 18:16:34;;;;;;;7.20;3.50;;;;;;;19.16;44.82;98326.14;108353;1303;22236;-54
2023/04/23 18:19:00;;;;;;;8.10;4.70;;;;;;;19.11;44.29;98330.42;108367;1303;22250;-55
2023/04/23 18:21:28;;;;;;;6.20;4.10;;;;;;;19.05;45.46;98328.59;108374;1303;22255;-53
2023/04/23 18:23:53;;;;;;;9.00;4.60;;;;;;;19.02;46.58;98333.70;108084;1303;22414;-53
2023/04/23 18:26:19;;;;;;;10.90;3.80;;;;;;;18.99;47.04;98332.70;108376;1303;22421;-53
2023/04/23 18:28:44;;;;;;;6.20;4.10;;;;;;;18.95;48.13;98330.69;108265;1303;22264;-53
2023/04/23 18:31:09;;;;;;;7.80;3.90;;;;;;;18.90;48.30;98333.16;108370;1303;22889;-57
2023/04/23 18:33:49;;;;;;;6.30;3.60;;;;;;;18.87;47.96;98334.52;108358;1303;22201;-51
2023/04/23 18:36:28;;;;;;;13.60;4.00;;;;;;;18.85;47.57;98333.95;108367;1303;23122;-50
2023/04/23 18:38:53;;;;;;;5.40;3.70;;;;;;;18.81;47.17;98335.38;108359;1303;22284;-54
2023/04/23 18:41:19;;;;;;;7.50;3.60;;;;;;;18.74;48.07;98338.46;108353;1303;22900;-55
2023/04/23 18:43:45;;;;;;;7.60;3.60;;;;;;;18.69;48.11;98339.94;108350;1303;22227;-52
2023/04/23 18:46:10;;;;;;;8.00;4.10;;;;;;;18.65;47.95;98341.22;108355;1303;22408;-53
2023/04/23 18:48:42;;;;;;;6.50;3.30;;;;;;;18.60;48.87;98347.79;108335;1303;22447;-54
2023/04/23 18:51:07;;;;;;;5.30;3.90;;;;;;;18.54;49.41;98348.83;108375;1303;22324;-54
2023/04/23 18:53:35;;;;;;;5.20;3.60;;;;;;;18.47;48.89;98350.72;108346;1303;22228;-55
2023/04/23 18:56:01;;;;;;;7.80;4.10;;;;;;;18.41;49.62;98352.02;108333;1303;22302;-55
2023/04/23 18:58:26;;;;;;;6.70;4.00;;;;;;;18.37;49.12;98352.63;108367;1303;22345;-49
2023/04/23 19:00:51;;;;;;;10.80;4.40;;;;;;;18.29;49.78;98352.89;108377;1303;22321;-49
2023/04/23 19:03:17;;;;;;;8.50;3.90;;;;;;;18.25;50.20;98354.80;108369;1303;22478;-51
2023/04/23 19:05:42;;;;;;;11.80;4.50;;;;;;;18.19;50.66;98358.03;108352;1303;22227;-51
2023/04/23 19:08:08;;;;;;;7.80;4.00;;;;;;;18.15;50.10;98355.64;108355;1303;22922;-51
2023/04/23 19:10:33;;;;;;;8.80;4.30;;;;;;;18.09;50.00;98356.88;108350;1303;22228;-56
2023/04/23 19:12:58;;;;;;;10.90;4.00;;;;;;;18.05;50.52;98356.82;108361;1303;22247;-53
2023/04/23 19:15:24;;;;;;;8.30;4.60;;;;;;;18.01;50.32;98356.98;108361;1303;22470;-55
2023/04/23 19:17:49;;;;;;;8.90;4.50;;;;;;;17.96;50.94;98355.89;108364;1303;22234;-55
2023/04/23 19:20:15;;;;;;;9.50;4.60;;;;;;;17.91;52.10;98356.76;108371;1303;22254;-55
2023/04/23 19:22:41;;;;;;;10.10;5.30;;;;;;;17.89;51.82;98357.92;108387;1303;22425;-55
2023/04/23 19:25:07;;;;;;;9.40;4.80;;;;;;;17.84;51.41;98354.41;108353;1303;22216;-50
2023/04/23 19:27:34;;;;;;;11.30;4.00;;;;;;;17.78;52.34;98352.92;108351;1303;22242;-57
2023/04/23 19:30:00;;;;;;;7.80;4.60;;;;;;;17.73;53.15;98356.03;108361;1303;23003;-54
2023/04/23 19:32:27;;;;;;;10.70;4.80;;;;;;;17.67;54.53;98357.88;108385;1303;23125;-55
2023/04/23 19:34:53;;;;;;;7.10;4.60;;;;;;;17.58;54.33;98356.08;108353;1303;22294;-49
2023/04/23 19:37:18;;;;;;;9.30;4.60;;;;;;;17.51;54.17;98355.60;108338;1303;22311;-52
2023/04/23 19:39:43;;;;;;;8.10;4.60;;;;;;;17.46;54.45;98354.96;108056;1303;23082;-57
2023/04/23 19:42:09;;;;;;;10.30;5.10;;;;;;;17.43;54.38;98355.60;108349;1303;22413;-55
2023/04/23 19:44:35;;;;;;;19.70;5.60;;;;;;;17.40;55.49;98352.77;108382;1303;22477;-53
2023/04/23 19:47:00;;;;;;;10.80;4.60;;;;;;;17.34;56.16;98354.58;108342;1303;22918;-52
2023/04/23 19:49:25;;;;;;;9.00;4.50;;;;;;;17.28;56.57;98350.36;108341;1303;22242;-54
2023/04/23 19:51:52;;;;;;;13.10;5.20;;;;;;;17.22;56.90;98354.02;108346;1303;22401;-53
2023/04/23 19:54:18;;;;;;;13.00;4.60;;;;;;;17.16;55.64;98352.64;108366;1303;22273;-58
2023/04/23 19:56:43;;;;;;;7.30;5.00;;;;;;;17.11;56.04;98351.02;108368;1303;22206;-53
2023/04/23 19:59:12;;;;;;;14.30;5.40;;;;;;;17.09;56.49;98350.13;108351;1303;22549;-55
2023/04/23 20:01:38;;;;;;;12.80;5.40;;;;;;;17.06;56.01;98348.04;108358;1303;22600;-56
2023/04/23 20:04:05;;;;;;;11.70;5.10;;;;;;;17.06;56.36;98346.33;108371;1303;22308;-54
2023/04/23 20:06:31;;;;;;;10.20;5.50;;;;;;;17.05;56.75;98345.77;108338;1303;22287;-50
2023/04/23 20:09:06;;;;;;;12.00;5.90;;;;;;;17.00;58.29;98346.39;108365;1303;23014;-55
2023/04/23 20:11:33;;;;;;;14.00;5.80;;;;;;;16.95;57.43;98348.30;108347;1303;22255;-54
2023/04/23 20:13:59;;;;;;;12.30;6.10;;;;;;;16.93;57.33;98347.45;108356;1303;22398;-55
2023/04/23 20:16:24;;;;;;;10.20;5.70;;;;;;;16.89;57.86;98348.81;108348;1303;22253;-57
2023/04/23 20:18:50;;;;;;;10.40;6.10;;;;;;;16.87;56.84;98344.58;108380;1303;22357;-58
2023/04/23 20:21:15;;;;;;;11.70;5.80;;;;;;;16.84;57.61;98345.95;108376;1303;22239;-51
2023/04/23 20:23:40;;;;;;;13.30;6.20;;;;;;;16.80;57.58;98344.88;108344;1303;22972;-52
2023/04/23 20:26:06;;;;;;;11.60;6.10;;;;;;;16.75;58.71;98340.98;108354;1303;22326;-54
2023/04/23 20:28:32;;;;;;;14.10;6.60;;;;;;;16.67;58.68;98338.30;108255;1303;22372;-53
2023/04/23 20:30:57;;;;;;;11.50;6.60;;;;;;;16.62;58.60;98334.11;108360;1303;22252;-53
2023/04/23 20:33:23;;;;;;;15.80;6.20;;;;;;;16.56;59.19;98334.13;108376;1303;22254;-54
2023/04/23 20:35:49;;;;;;;11.30;6.40;;;;;;;16.49;60.36;98334.95;108375;1303;23009;-51
2023/04/23 20:38:17;;;;;;;12.40;6.70;;;;;;;16.41;60.85;98335.34;108364;1303;22438;-56
2023/04/23 20:40:45;;;;;;;13.80;6.00;;;;;;;16.35;61.17;98334.33;108369;1303;23734;-54
2023/04/23 20:43:10;;;;;;;12.60;6.80;;;;;;;16.31;61.40;98333.31;108370;1303;22207;-58
2023/04/23 20:45:36;;;;;;;12.60;6.60;;;;;;;16.25;61.78;98332.57;108248;1301;22241;-54
2023/04/23 20:48:02;;;;;;;13.30;6.60;;;;;;;16.20;61.03;98332.39;108355;1303;22255;-51
2023/04/23 20:50:28;;;;;;;13.40;6.80;;;;;;;16.14;60.93;98336.09;108379;1303;22250;-57
2023/04/23 20:52:53;;;;;;;12.40;6.80;;;;;;;16.13;61.05;98330.57;108362;1303;22227;-51
2023/04/23 20:55:18;;;;;;;15.70;6.60;;;;;;;16.11;61.69;98328.42;108360;1303;22336;-51
2023/04/23 20:57:44;;;;;;;13.30;6.40;;;;;;;16.09;62.46;98326.98;108373;1303;22378;-55
2023/04/23 21:00:13;;;;;;;16.20;7.00;;;;;;;16.08;62.53;98323.38;108345;1303;22247;-55
2023/04/23 21:02:39;;;;;;;10.50;6.20;;;;;;;16.05;63.01;98321.91;108352;1303;22274;-55
2023/04/23 21:05:06;;;;;;;11.30;7.00;;;;;;;16.01;63.40;98319.46;108377;1303;22221;-53
2023/04/23 21:07:32;;;;;;;12.50;6.50;;;;;;;15.98;63.58;98320.45;108355;1303;22236;-57
2023/04/23 21:09:57;;;;;;;15.90;6.30;;;;;;;15.96;63.94;98320.09;108363;1303;22477;-55
2023/04/23 21:12:23;;;;;;;16.50;5.90;;;;;;;15.93;63.78;98316.16;108349;1303;22439;-53
2023/04/23 21:14:48;;;;;;;11.80;6.00;;;;;;;15.89;64.35;98314.74;108355;1303;23136;-53
2023/04/23 21:17:16;;;;;;;12.10;6.60;;;;;;;15.86;64.15;98311.80;108223;1303;23087;-54
2023/04/23 21:19:41;;;;;;;;;;;;;;;15.83;64.98;98311.39;108361;1303;22542;-51
2023/04/23 21:22:06;;;;;;;10.30;5.80;;;;;;;15.79;65.52;98311.07;108355;1303;23156;-56
2023/04/23 21:24:32;;;;;;;8.70;6.10;;;;;;;15.78;64.72;98308.40;108348;1303;22420;-58
2023/04/23 21:26:57;;;;;;;14.70;6.50;;;;;;;15.73;64.81;98308.71;108357;1303;23048;-52
2023/04/23 21:29:24;;;;;;;12.50;6.20;;;;;;;15.69;65.31;98306.98;108333;1303;22228;-51
2023/04/23 21:31:51;;;;;;;10.50;6.70;;;;;;;15.65;65.78;98306.46;108368;1303;22934;-52
2023/04/23 21:34:18;;;;;;;12.60;6.20;;;;;;;15.62;65.64;98308.02;108382;1303;22199;-54
2023/04/23 21:36:44;;;;;;;10.50;6.50;;;;;;;15.60;64.98;98303.98;108360;1303;22225;-57
2023/04/23 21:39:11;;;;;;;11.20;6.40;;;;;;;15.57;66.10;98303.16;108358;1303;22242;-53
2023/04/23 21:41:37;;;;;;;8.60;6.10;;;;;;;15.53;66.49;98300.35;108366;1303;22253;-55
2023/04/23 21:44:02;;;;;;;10.40;6.50;;;;;;;15.50;67.32;98303.27;108355;1303;22250;-51
2023/04/23 21:46:29;;;;;;;14.50;7.10;;;;;;;15.47;66.59;98304.71;108335;1303;22250;-56
2023/04/23 21:48:55;;;;;;;13.30;6.60;;;;;;;15.47;65.99;98300.85;108363;1303;22200;-53
2023/04/23 21:51:21;;;;;;;12.50;6.40;;;;;;;15.48;65.51;98298.49;108359;1303;22243;-56
2023/04/23 21:53:47;;;;;;;12.20;6.30;;;;;;;15.48;65.42;98298.83;108342;1303;22319;-53
2023/04/23 21:56:14;;;;;;;13.80;6.40;;;;;;;15.44;66.27;98298.48;108352;1303;22244;-53
2023/04/23 21:58:39;;;;;;;11.50;7.00;;;;;;;15.41;66.79;98300.36;108356;1303;22222;-58
2023/04/23 22:01:04;;;;;;;18.50;7.10;;;;;;;15.40;66.86;98296.60;108344;1303;22241;-55
2023/04/23 22:03:33;;;;;;;9.40;7.20;;;;;;;15.37;66.33;98298.30;108357;1303;22679;-56
2023/04/23 22:06:00;;;;;;;15.00;7.70;;;;;;;15.36;67.34;98297.10;108352;1303;23218;-55
2023/04/23 22:08:25;;;;;;;13.00;7.10;;;;;;;15.36;67.63;98297.80;108368;1303;22349;-51
2023/04/23 22:10:51;;;;;;;14.60;7.90;;;;;;;15.35;67.10;98292.97;108350;1303;22240;-53
2023/04/23 22:13:16;;;;;;;20.80;7.50;;;;;;;15.33;67.39;98290.00;108346;1303;22942;-54
2023/04/23 22:15:43;;;;;;;16.00;7.80;;;;;;;15.29;67.65;98291.19;108355;1303;22197;-55
2023/04/23 22:18:08;;;;;;;15.20;8.10;;;;;;;15.26;67.59;98290.55;108344;1303;22107;-54
2023/04/23 22:20:33;;;;;;;14.50;8.50;;;;;;;15.25;67.18;98293.35;108347;1303;23014;-55
2023/04/23 22:22:59;;;;;;;15.30;8.70;;;;;;;15.23;66.86;98298.77;108367;1303;23092;-55
2023/04/23 22:25:25;;;;;;;20.80;8.50;;;;;;;15.25;66.64;98294.59;108344;1303;22241;-57
2023/04/23 22:27:50;;;;;;;13.70;8.40;;;;;;;15.26;66.72;98293.63;108265;1303;22323;-54
2023/04/23 22:30:15;;;;;;;16.40;8.20;;;;;;;15.26;67.30;98290.20;108348;1303;22368;-54
2023/04/23 22:32:41;;;;;;;11.20;8.30;;;;;;;15.24;67.50;98291.67;108342;1303;22419;-56
2023/04/23 22:35:07;;;;;;;19.70;8.50;;;;;;;15.22;67.72;98288.98;108343;1303;22914;-53
2023/04/23 22:37:32;;;;;;;14.20;7.90;;;;;;;15.20;67.84;98284.97;108342;1303;22271;-54
2023/04/23 22:39:58;;;;;;;14.50;7.50;;;;;;;15.20;67.51;98283.58;108345;1303;22552;-54
2023/04/23 22:42:24;;;;;;;12.40;7.50;;;;;;;15.17;68.56;98285.98;108375;1303;22203;-57
2023/04/23 22:44:50;;;;;;;11.80;6.90;;;;;;;15.13;68.26;98282.58;108350;1303;22310;-52
2023/04/23 22:47:15;;;;;;;17.10;7.60;;;;;;;15.09;68.23;98282.39;108357;1303;23013;-56
2023/04/23 22:49:40;;;;;;;16.80;7.70;;;;;;;15.06;68.12;98279.52;108366;1303;22409;-57
2023/04/23 22:52:07;;;;;;;17.00;8.70;;;;;;;15.03;68.45;98275.92;108356;1303;22466;-53
2023/04/23 22:54:33;;;;;;;20.60;9.20;;;;;;;14.98;68.73;98277.04;108349;1303;22309;-54
2023/04/23 22:56:58;;;;;;;13.70;8.00;;;;;;;14.95;69.00;98274.48;108342;1303;22230;-53
2023/04/23 22:59:24;;;;;;;16.40;8.20;;;;;;;14.92;68.64;98269.84;108349;1303;22483;-52
2023/04/23 23:01:50;;;;;;;21.70;8.60;;;;;;;14.89;69.29;98268.66;108349;1303;23068;-55
2023/04/23 23:04:16;;;;;;;14.30;8.30;;;;;;;14.87;69.74;98263.53;108367;1303;22440;-55
2023/04/23 23:06:42;;;;;;;20.70;8.60;;;;;;;14.83;69.27;98260.04;108363;1303;22242;-56
2023/04/23 23:09:07;;;;;;;16.10;9.00;;;;;;;14.81;69.04;98257.78;108373;1303;23072;-54
2023/04/23 23:11:33;;;;;;;21.50;8.90;;;;;;;14.80;69.25;98254.68;108338;1303;22299;-53
2023/04/23 23:13:59;;;;;;;17.20;9.50;;;;;;;14.79;70.05;98257.36;108361;1303;22928;-56
2023/04/23 23:16:25;;;;;;;21.10;9.40;;;;;;;14.77;70.19;98251.23;108336;1303;22191;-53
2023/04/23 23:18:50;;;;;;;19.00;9.40;;;;;;;14.74;70.66;98248.81;108336;1303;22271;-54
2023/04/23 23:21:16;;;;;;;14.50;9.40;;;;;;;14.73;69.91;98249.63;108362;1303;22476;-54